createdAt,value
2022-08-18T00:01:42.423Z,100734.00
2022-08-18T00:04:21.761Z,100740.00
2022-08-18T00:06:57.559Z,100746.00
2022-08-18T00:09:27.784Z,100754.00
2022-08-18T00:11:58.446Z,100757.00
2022-08-18T00:14:25.292Z,100746.00
2022-08-18T00:16:53.899Z,100743.00
2022-08-18T00:19:45.438Z,100748.00
2022-08-18T00:22:12.452Z,100736.00
2022-08-18T00:24:48.407Z,100743.00
2022-08-18T00:27:19.582Z,100737.00
2022-08-18T00:29:49.062Z,100735.00
2022-08-18T00:32:18.985Z,100738.00
2022-08-18T00:34:45.841Z,100738.00
2022-08-18T00:37:12.805Z,100747.00
2022-08-18T00:39:40.693Z,100756.00
2022-08-18T00:42:31.918Z,100745.00
2022-08-18T00:45:04.249Z,100754.00
2022-08-18T00:47:41.014Z,100736.00
2022-08-18T00:50:23.867Z,100742.00
2022-08-18T00:53:00.776Z,100753.00
2022-08-18T00:55:29.341Z,100748.00
2022-08-18T00:58:01.832Z,100738.00
2022-08-18T01:00:28.888Z,100741.00
2022-08-18T01:02:59.148Z,100739.00
2022-08-18T01:05:34.169Z,100735.00
2022-08-18T01:08:01.123Z,100735.00
2022-08-18T01:10:28.393Z,100742.00
2022-08-18T01:12:57.881Z,100747.00
2022-08-18T01:15:30.185Z,100740.00
2022-08-18T01:18:22.657Z,100744.00
2022-08-18T01:21:22.410Z,100748.00
2022-08-18T01:23:49.844Z,100746.00
2022-08-18T01:26:18.369Z,100745.00
2022-08-18T01:28:46.543Z,100756.00
2022-08-18T01:31:29.281Z,100745.00
2022-08-18T01:33:57.290Z,100739.00
2022-08-18T01:36:24.167Z,100738.00
2022-08-18T01:38:53.504Z,100734.00
2022-08-18T01:41:29.708Z,100733.00
2022-08-18T01:43:59.675Z,100723.00
2022-08-18T01:46:29.132Z,100718.00
2022-08-18T01:48:56.468Z,100716.00
2022-08-18T01:51:40.719Z,100717.00
2022-08-18T01:54:11.171Z,100720.00
2022-08-18T01:56:38.152Z,100728.00
2022-08-18T01:59:06.394Z,100725.00
2022-08-18T02:01:48.430Z,100720.00
2022-08-18T02:04:35.057Z,100720.00
2022-08-18T02:07:09.987Z,100711.00
2022-08-18T02:09:38.645Z,100708.00
2022-08-18T02:12:07.336Z,100696.00
2022-08-18T02:14:35.784Z,100699.00
2022-08-18T02:17:04.265Z,100707.00
2022-08-18T02:19:36.724Z,100693.00
2022-08-18T02:22:04.533Z,100700.00
2022-08-18T02:24:31.731Z,100693.00
2022-08-18T02:26:58.640Z,100691.00
2022-08-18T02:29:25.504Z,100684.00
2022-08-18T02:31:52.853Z,100691.00
2022-08-18T02:34:19.693Z,100680.00
2022-08-18T02:36:46.700Z,100683.00
2022-08-18T02:39:14.585Z,100679.00
2022-08-18T02:41:42.101Z,100680.00
2022-08-18T02:44:09.608Z,100672.00
2022-08-18T02:46:37.369Z,100672.00
2022-08-18T02:49:05.557Z,100676.00
2022-08-18T02:51:32.346Z,100687.00
2022-08-18T02:53:59.323Z,100682.00
2022-08-18T02:56:39.936Z,100694.00
2022-08-18T02:59:14.717Z,100694.00
2022-08-18T03:01:45.033Z,100691.00
2022-08-18T03:04:15.490Z,100689.00
2022-08-18T03:06:42.738Z,100689.00
2022-08-18T03:09:11.719Z,100694.00
2022-08-18T03:11:39.126Z,100701.00
2022-08-18T03:14:08.679Z,100686.00
2022-08-18T03:16:40.527Z,100688.00
2022-08-18T03:19:20.202Z,100682.00
2022-08-18T03:21:47.811Z,100687.00
2022-08-18T03:24:19.678Z,100692.00
2022-08-18T03:26:50.521Z,100701.00
2022-08-18T03:29:17.346Z,100694.00
2022-08-18T03:31:45.374Z,100708.00
2022-08-18T03:34:13.066Z,100703.00
2022-08-18T03:36:40.407Z,100707.00
2022-08-18T03:39:09.748Z,100721.00
2022-08-18T03:41:44.113Z,100715.00
2022-08-18T03:44:28.058Z,100719.00
2022-08-18T03:46:54.941Z,100710.00
2022-08-18T03:49:22.353Z,100705.00
2022-08-18T03:51:49.292Z,100714.00
2022-08-18T03:54:17.544Z,100722.00
2022-08-18T03:56:45.966Z,100708.00
2022-08-18T03:59:20.117Z,100702.00
2022-08-18T04:01:48.563Z,100705.00
2022-08-18T04:04:21.705Z,100698.00
2022-08-18T04:07:00.926Z,100712.00
2022-08-18T04:09:30.140Z,100710.00
2022-08-18T04:11:58.422Z,100711.00
2022-08-18T04:14:32.692Z,100729.00
2022-08-18T04:17:00.337Z,100717.00
2022-08-18T04:19:28.522Z,100722.00
2022-08-18T04:21:57.477Z,100718.00
2022-08-18T04:24:26.127Z,100722.00
2022-08-18T04:26:53.600Z,100716.00
2022-08-18T04:29:24.188Z,100725.00
2022-08-18T04:31:52.013Z,100717.00
2022-08-18T04:34:20.723Z,100721.00
2022-08-18T04:36:48.022Z,100723.00
2022-08-18T04:39:14.840Z,100717.00
2022-08-18T04:41:43.851Z,100721.00
2022-08-18T04:44:12.325Z,100720.00
2022-08-18T04:46:41.850Z,100721.00
2022-08-18T04:49:10.705Z,100726.00
2022-08-18T04:52:34.204Z,100725.00
2022-08-18T04:54:28.942Z,100731.00
2022-08-18T04:56:55.994Z,100726.00
2022-08-18T04:59:23.032Z,100724.00
2022-08-18T05:01:49.975Z,100710.00
2022-08-18T05:04:17.790Z,100713.00
2022-08-18T05:06:45.281Z,100705.00
2022-08-18T05:09:16.766Z,100707.00
2022-08-18T05:11:50.672Z,100706.00
2022-08-18T05:14:18.140Z,100706.00
2022-08-18T05:16:48.813Z,100700.00
2022-08-18T05:19:23.308Z,100706.00
2022-08-18T05:21:53.364Z,100710.00
2022-08-18T05:24:30.781Z,100716.00
2022-08-18T05:27:01.721Z,100707.00
2022-08-18T05:29:34.248Z,100711.00
2022-08-18T05:32:03.871Z,100711.00
2022-08-18T05:34:30.931Z,100698.00
2022-08-18T05:37:09.830Z,100707.00
2022-08-18T05:39:57.524Z,100709.00
2022-08-18T05:42:35.177Z,100705.00
2022-08-18T05:45:03.083Z,100703.00
2022-08-18T05:47:31.910Z,100696.00
2022-08-18T05:50:14.132Z,100699.00
2022-08-18T05:52:51.413Z,100695.00
2022-08-18T05:55:47.750Z,100704.00
2022-08-18T05:58:23.726Z,100704.00
2022-08-18T06:01:05.049Z,100700.00
2022-08-18T06:03:46.671Z,100695.00
2022-08-18T06:06:23.779Z,100701.00
2022-08-18T06:09:11.864Z,100696.00
2022-08-18T06:11:39.043Z,100700.00
2022-08-18T06:14:06.023Z,100702.00
2022-08-18T06:16:48.089Z,100713.00
2022-08-18T06:19:33.446Z,100708.00
2022-08-18T06:22:09.171Z,100718.00
2022-08-18T06:24:46.938Z,100718.00
2022-08-18T06:27:45.436Z,100721.00
2022-08-18T06:30:42.582Z,100724.00
2022-08-18T06:33:32.606Z,100739.00
2022-08-18T06:36:19.434Z,100746.00
2022-08-18T06:38:54.482Z,100741.00
2022-08-18T06:41:44.849Z,100731.00
2022-08-18T06:44:45.536Z,100741.00
2022-08-18T06:47:29.898Z,100741.00
2022-08-18T06:50:02.888Z,100739.00
2022-08-18T06:52:31.313Z,100729.00
2022-08-18T06:55:00.302Z,100736.00
2022-08-18T06:57:36.625Z,100725.00
2022-08-18T07:00:21.355Z,100738.00
2022-08-18T07:03:08.227Z,100741.00
2022-08-18T07:05:37.043Z,100739.00
2022-08-18T07:08:18.741Z,100734.00
2022-08-18T07:10:48.040Z,100741.00
2022-08-18T07:13:30.000Z,100750.00
2022-08-18T07:16:15.889Z,100757.00
2022-08-18T07:18:46.993Z,100757.00
2022-08-18T07:21:32.731Z,100765.00
2022-08-18T07:24:24.466Z,100751.00
2022-08-18T07:27:13.129Z,100767.00
2022-08-18T07:30:04.182Z,100753.00
2022-08-18T07:32:43.589Z,100747.00
2022-08-18T07:35:12.442Z,100747.00
2022-08-18T07:37:46.693Z,100748.00
2022-08-18T07:40:20.813Z,100761.00
2022-08-18T07:43:06.193Z,100761.00
2022-08-18T07:45:41.104Z,100772.00
2022-08-18T07:48:37.567Z,100783.00
2022-08-18T07:51:15.174Z,100780.00
2022-08-18T07:53:56.635Z,100779.00
2022-08-18T07:56:39.537Z,100781.00
2022-08-18T07:59:29.514Z,100793.00
2022-08-18T08:02:35.182Z,100781.00
2022-08-18T08:05:06.932Z,100783.00
2022-08-18T08:07:50.889Z,100776.00
2022-08-18T08:10:36.290Z,100773.00
2022-08-18T08:13:53.584Z,100790.00
2022-08-18T08:16:36.184Z,100801.00
2022-08-18T08:19:12.685Z,100796.00
2022-08-18T08:21:52.958Z,100812.00
2022-08-18T08:24:39.091Z,100793.00
2022-08-18T08:27:17.512Z,100788.00
2022-08-18T08:30:09.715Z,100800.00
2022-08-18T08:32:36.555Z,100804.00
2022-08-18T08:35:48.735Z,100816.00
2022-08-18T08:38:39.536Z,100804.00
2022-08-18T08:41:03.242Z,100805.00
2022-08-18T08:43:34.486Z,100799.00
2022-08-18T08:46:15.722Z,100796.00
2022-08-18T08:48:48.060Z,100803.00
2022-08-18T08:51:33.695Z,100809.00
2022-08-18T08:54:16.200Z,100815.00
2022-08-18T08:56:46.019Z,100805.00
2022-08-18T08:59:15.544Z,100799.00
2022-08-18T09:02:03.379Z,100789.00
2022-08-18T09:05:07.759Z,100791.00
2022-08-18T09:07:59.031Z,100787.00
2022-08-18T09:10:44.997Z,100793.00
2022-08-18T09:13:28.861Z,100810.00
2022-08-18T09:16:34.147Z,100827.00
2022-08-18T09:19:24.948Z,100819.00
2022-08-18T09:22:15.045Z,100846.00
2022-08-18T09:24:54.848Z,100821.00
2022-08-18T09:28:09.216Z,100832.00
2022-08-18T09:30:56.638Z,100817.00
2022-08-18T09:33:46.483Z,100834.00
2022-08-18T09:36:28.546Z,100824.00
2022-08-18T09:39:20.587Z,100817.00
2022-08-18T09:41:59.365Z,100825.00
2022-08-18T09:44:42.835Z,100831.00
2022-08-18T09:47:10.269Z,100821.00
2022-08-18T09:49:47.766Z,100798.00
2022-08-18T09:52:21.074Z,100804.00
2022-08-18T09:54:52.088Z,100806.00
2022-08-18T09:57:24.577Z,100798.00
2022-08-18T10:00:04.814Z,100800.00
2022-08-18T10:02:37.450Z,100791.00
2022-08-18T10:05:19.952Z,100807.00
2022-08-18T10:08:06.119Z,100805.00
2022-08-18T10:11:00.755Z,100794.00
2022-08-18T10:13:39.081Z,100818.00
2022-08-18T10:16:23.240Z,100797.00
2022-08-18T10:19:14.014Z,100818.00
2022-08-18T10:21:56.227Z,100809.00
2022-08-18T10:24:36.000Z,100826.00
2022-08-18T10:27:31.448Z,100846.00
2022-08-18T10:30:00.414Z,100844.00
2022-08-18T10:32:52.085Z,100839.00
2022-08-18T10:35:33.791Z,100812.00
2022-08-18T10:38:10.232Z,100829.00
2022-08-18T10:40:38.820Z,100831.00
2022-08-18T10:43:45.380Z,100843.00
2022-08-18T10:46:24.277Z,100848.00
2022-08-18T10:48:59.076Z,100833.00
2022-08-18T10:52:07.789Z,100848.00
2022-08-18T10:54:55.023Z,100838.00
2022-08-18T10:57:33.094Z,100859.00
2022-08-18T11:00:08.006Z,100860.00
2022-08-18T11:02:42.553Z,100870.00
2022-08-18T11:05:12.303Z,100883.00
2022-08-18T11:07:44.902Z,100868.00
2022-08-18T11:10:30.487Z,100857.00
2022-08-18T11:13:25.552Z,100859.00
2022-08-18T11:16:18.434Z,100854.00
2022-08-18T11:18:53.019Z,100872.00
2022-08-18T11:21:25.631Z,100878.00
2022-08-18T11:24:17.107Z,100860.00
2022-08-18T11:27:04.180Z,100821.00
2022-08-18T11:29:41.681Z,100826.00
2022-08-18T11:32:16.002Z,100818.00
2022-08-18T11:35:05.131Z,100815.00
2022-08-18T11:37:49.685Z,100784.00
2022-08-18T11:40:52.348Z,100796.00
2022-08-18T11:43:21.356Z,100793.00
2022-08-18T11:45:55.067Z,100806.00
2022-08-18T11:48:39.086Z,100801.00
2022-08-18T11:51:17.507Z,100800.00
2022-08-18T11:54:04.950Z,100812.00
2022-08-18T11:59:52.458Z,100851.00
2022-08-18T12:02:20.677Z,100872.00
2022-08-18T12:04:53.133Z,100875.00
2022-08-18T12:07:32.368Z,100874.00
2022-08-18T12:10:28.779Z,100876.00
2022-08-18T12:15:47.704Z,100880.00
2022-08-18T12:18:26.124Z,100874.00
2022-08-18T12:20:59.399Z,100868.00
2022-08-18T12:23:38.349Z,100852.00
2022-08-18T12:26:27.290Z,100880.00
2022-08-18T12:29:01.616Z,100875.00
2022-08-18T12:34:24.808Z,100860.00
2022-08-18T12:36:56.081Z,100861.00
2022-08-18T12:39:23.426Z,100884.00
2022-08-18T12:41:51.324Z,100895.00
2022-08-18T12:44:20.233Z,100863.00
2022-08-18T12:46:49.161Z,100873.00
2022-08-18T12:49:18.591Z,100864.00
2022-08-18T12:51:50.097Z,100875.00
2022-08-18T12:54:20.644Z,100888.00
2022-08-18T12:56:53.420Z,100873.00
2022-08-18T12:59:20.277Z,100870.00
2022-08-18T13:01:47.398Z,100868.00
2022-08-18T13:04:15.624Z,100843.00
2022-08-18T13:07:00.725Z,100882.00
2022-08-18T13:09:35.044Z,100866.00
2022-08-18T13:12:16.702Z,100891.00
2022-08-18T13:14:45.423Z,100858.00
2022-08-18T13:17:30.325Z,100853.00
2022-08-18T13:20:18.779Z,100863.00
2022-08-18T13:22:45.852Z,100879.00
2022-08-18T13:25:32.147Z,100881.00
2022-08-18T13:28:02.634Z,100884.00
2022-08-18T13:30:32.351Z,100880.00
2022-08-18T13:33:05.455Z,100863.00
2022-08-18T13:35:48.827Z,100867.00
2022-08-18T13:38:25.999Z,100861.00
2022-08-18T13:40:59.592Z,100859.00
2022-08-18T13:43:34.261Z,100845.00
2022-08-18T13:46:03.024Z,100865.00
2022-08-18T13:48:34.149Z,100861.00
2022-08-18T13:51:01.915Z,100889.00
2022-08-18T13:53:32.786Z,100884.00
2022-08-18T13:56:00.047Z,100872.00
2022-08-18T13:58:29.294Z,100874.00
2022-08-18T14:01:22.868Z,100897.00
2022-08-18T14:03:50.064Z,100884.00
2022-08-18T14:06:22.787Z,100878.00
2022-08-18T14:08:53.364Z,100884.00
2022-08-18T14:11:32.953Z,100872.00
2022-08-18T14:14:01.904Z,100875.00
2022-08-18T14:16:29.226Z,100868.00
2022-08-18T14:19:17.680Z,100851.00
2022-08-18T14:22:11.777Z,100889.00
2022-08-18T14:24:59.534Z,100873.00
2022-08-18T14:27:38.369Z,100875.00
2022-08-18T14:30:08.927Z,100855.00
2022-08-18T14:32:36.440Z,100860.00
2022-08-18T14:35:24.426Z,100848.00
2022-08-18T14:37:53.247Z,100865.00
2022-08-18T14:40:25.373Z,100855.00
2022-08-18T14:42:54.507Z,100827.00
2022-08-18T14:45:35.308Z,100854.00
2022-08-18T14:48:07.611Z,100869.00
2022-08-18T14:50:49.164Z,100845.00
2022-08-18T14:53:22.970Z,100851.00
2022-08-18T14:55:52.524Z,100867.00
2022-08-18T14:58:28.883Z,100864.00
2022-08-18T15:00:57.644Z,100856.00
2022-08-18T15:03:31.247Z,100858.00
2022-08-18T15:06:00.826Z,100857.00
2022-08-18T15:08:35.809Z,100869.00
2022-08-18T15:11:03.894Z,100908.00
2022-08-18T15:13:32.506Z,100920.00
2022-08-18T15:16:02.155Z,100890.00
2022-08-18T15:18:29.936Z,100904.00
2022-08-18T15:21:19.744Z,100897.00
2022-08-18T15:24:22.140Z,100884.00
2022-08-18T15:27:10.437Z,100884.00
2022-08-18T15:29:46.685Z,100864.00
2022-08-18T15:32:16.847Z,100877.00
2022-08-18T15:34:51.386Z,100873.00
2022-08-18T15:37:52.953Z,100857.00
2022-08-18T15:40:31.184Z,100866.00
2022-08-18T15:43:09.911Z,100869.00
2022-08-18T15:45:43.468Z,100879.00
2022-08-18T15:48:19.631Z,100895.00
2022-08-18T15:50:50.998Z,100888.00
2022-08-18T15:53:25.450Z,100865.00
2022-08-18T15:56:33.477Z,100869.00
2022-08-18T15:59:12.748Z,100866.00
2022-08-18T16:01:42.999Z,100869.00
2022-08-18T16:04:11.065Z,100863.00
2022-08-18T16:06:39.724Z,100853.00
2022-08-18T16:09:06.574Z,100832.00
2022-08-18T16:11:33.442Z,100856.00
2022-08-18T16:14:00.352Z,100844.00
2022-08-18T16:16:29.347Z,100843.00
2022-08-18T16:19:06.613Z,100830.00
2022-08-18T16:21:34.066Z,100825.00
2022-08-18T16:24:00.979Z,100836.00
2022-08-18T16:26:27.895Z,100828.00
2022-08-18T16:28:54.759Z,100823.00
2022-08-18T16:31:26.310Z,100837.00
2022-08-18T16:33:55.148Z,100838.00
2022-08-18T16:36:25.372Z,100826.00
2022-08-18T16:38:53.617Z,100833.00
2022-08-18T16:41:20.808Z,100828.00
2022-08-18T16:43:48.541Z,100817.00
2022-08-18T16:46:19.241Z,100824.00
2022-08-18T16:48:46.101Z,100815.00
2022-08-18T16:51:20.219Z,100831.00
2022-08-18T16:53:47.827Z,100843.00
2022-08-18T16:56:18.348Z,100823.00
2022-08-18T16:59:05.237Z,100822.00
2022-08-18T17:01:52.555Z,100809.00
2022-08-18T17:04:22.850Z,100831.00
2022-08-18T17:06:50.531Z,100831.00
2022-08-18T17:09:18.927Z,100826.00
2022-08-18T17:11:48.076Z,100829.00
2022-08-18T17:14:19.758Z,100825.00
2022-08-18T17:16:48.588Z,100816.00
2022-08-18T17:19:15.501Z,100818.00
2022-08-18T17:21:42.397Z,100815.00
2022-08-18T17:24:11.395Z,100810.00
2022-08-18T17:26:55.580Z,100804.00
2022-08-18T17:29:37.467Z,100814.00
2022-08-18T17:32:20.150Z,100805.00
2022-08-18T17:34:51.891Z,100799.00
2022-08-18T17:37:21.490Z,100796.00
2022-08-18T17:39:57.648Z,100799.00
2022-08-18T17:42:27.824Z,100803.00
2022-08-18T17:45:07.509Z,100809.00
2022-08-18T17:48:03.977Z,100800.00
2022-08-18T17:50:54.506Z,100811.00
2022-08-18T17:53:22.314Z,100805.00
2022-08-18T17:56:21.113Z,100801.00
2022-08-18T17:58:55.896Z,100802.00
2022-08-18T18:01:30.478Z,100810.00
2022-08-18T18:04:03.991Z,100797.00
2022-08-18T18:06:34.081Z,100797.00
2022-08-18T18:09:02.677Z,100797.00
2022-08-18T18:11:36.871Z,100797.00
2022-08-18T18:14:41.138Z,100802.00
2022-08-18T18:17:24.753Z,100797.00
2022-08-18T18:19:58.107Z,100807.00
2022-08-18T18:22:28.650Z,100812.00
2022-08-18T18:25:08.020Z,100807.00
2022-08-18T18:27:48.448Z,100805.00
2022-08-18T18:30:28.100Z,100805.00
2022-08-18T18:33:03.547Z,100801.00
2022-08-18T18:35:54.343Z,100797.00
2022-08-18T18:38:30.798Z,100803.00
2022-08-18T18:41:18.451Z,100797.00
2022-08-18T18:43:53.123Z,100799.00
2022-08-18T18:46:36.798Z,100788.00
2022-08-18T18:49:19.084Z,100793.00
2022-08-18T18:52:17.358Z,100792.00
2022-08-18T18:55:13.632Z,100780.00
2022-08-18T18:58:02.052Z,100786.00
2022-08-18T19:04:12.496Z,100795.00
2022-08-18T19:06:58.704Z,100794.00
2022-08-18T19:09:33.656Z,100803.00
2022-08-18T19:12:18.812Z,100792.00
2022-08-18T19:14:59.794Z,100798.00
2022-08-18T19:17:41.379Z,100795.00
2022-08-18T19:20:16.652Z,100796.00
2022-08-18T19:22:49.633Z,100799.00
2022-08-18T19:25:28.347Z,100800.00
2022-08-18T19:28:23.405Z,100812.00
2022-08-18T19:30:53.288Z,100810.00
2022-08-18T19:33:57.975Z,100814.00
2022-08-18T19:36:43.892Z,100821.00
2022-08-18T19:39:16.025Z,100815.00
2022-08-18T19:42:00.207Z,100819.00
2022-08-18T19:44:36.094Z,100817.00
2022-08-18T19:47:12.855Z,100816.00
2022-08-18T19:49:48.444Z,100812.00
2022-08-18T19:52:46.220Z,100806.00
2022-08-18T19:55:14.053Z,100807.00
2022-08-18T19:57:53.610Z,100812.00
2022-08-18T20:00:56.656Z,100809.00
2022-08-18T20:03:53.678Z,100809.00
2022-08-18T20:06:34.323Z,100807.00
2022-08-18T20:09:29.279Z,100808.00
2022-08-18T20:12:11.214Z,100799.00
2022-08-18T20:14:39.346Z,100802.00
2022-08-18T20:17:09.142Z,100809.00
2022-08-18T20:19:35.957Z,100803.00
2022-08-18T20:22:26.734Z,100798.00
2022-08-18T20:25:04.568Z,100793.00
2022-08-18T20:27:36.089Z,100797.00
2022-08-18T20:30:21.839Z,100800.00
2022-08-18T20:33:29.588Z,100805.00
2022-08-18T20:36:03.484Z,100809.00
2022-08-18T20:38:51.073Z,100806.00
2022-08-18T20:41:26.464Z,100805.00
2022-08-18T20:43:59.219Z,100809.00
2022-08-18T20:46:42.985Z,100812.00
2022-08-18T20:49:28.805Z,100809.00
2022-08-18T20:52:18.481Z,100813.00
2022-08-18T20:55:11.735Z,100808.00
2022-08-18T20:57:40.125Z,100808.00
2022-08-18T21:00:27.117Z,100819.00
2022-08-18T21:02:59.911Z,100811.00
2022-08-18T21:05:35.123Z,100814.00
2022-08-18T21:08:15.973Z,100824.00
2022-08-18T21:10:53.941Z,100809.00
2022-08-18T21:13:46.395Z,100811.00
2022-08-18T21:16:37.953Z,100806.00
2022-08-18T21:19:17.982Z,100815.00
2022-08-18T21:21:50.041Z,100805.00
2022-08-18T21:24:27.671Z,100823.00
2022-08-18T21:26:57.607Z,100814.00
2022-08-18T21:29:25.143Z,100808.00
2022-08-18T21:31:53.105Z,100809.00
2022-08-18T21:34:30.291Z,100811.00
2022-08-18T21:36:58.331Z,100806.00
2022-08-18T21:39:25.310Z,100819.00
2022-08-18T21:41:57.530Z,100812.00
2022-08-18T21:44:28.863Z,100824.00
2022-08-18T21:47:26.391Z,100825.00
2022-08-18T21:50:09.342Z,100822.00
2022-08-18T21:52:39.080Z,100823.00
2022-08-18T21:55:12.319Z,100828.00
2022-08-18T21:57:50.567Z,100821.00
2022-08-18T22:00:23.756Z,100818.00
2022-08-18T22:02:52.459Z,100813.00
2022-08-18T22:05:58.979Z,100817.00
2022-08-18T22:08:20.741Z,100814.00
2022-08-18T22:12:00.099Z,100822.00
2022-08-18T22:14:32.940Z,100816.00
2022-08-18T22:17:42.077Z,100825.00
2022-08-18T22:20:31.916Z,100819.00
2022-08-18T22:23:32.638Z,100825.00
2022-08-18T22:26:12.376Z,100825.00
2022-08-18T22:28:56.384Z,100825.00
2022-08-18T22:31:25.949Z,100828.00
2022-08-18T22:33:54.187Z,100826.00
2022-08-18T22:36:27.661Z,100814.00
2022-08-18T22:38:54.796Z,100808.00
2022-08-18T22:41:22.109Z,100813.00
2022-08-18T22:43:54.693Z,100807.00
2022-08-18T22:46:24.497Z,100803.00
2022-08-18T22:48:52.774Z,100802.00
2022-08-18T22:51:22.752Z,100809.00
2022-08-18T22:53:50.036Z,100805.00
2022-08-18T22:56:21.868Z,100804.00
2022-08-18T22:59:01.137Z,100808.00
2022-08-18T23:01:43.501Z,100812.00
2022-08-18T23:04:10.537Z,100815.00
2022-08-18T23:06:37.462Z,100821.00
2022-08-18T23:09:04.870Z,100812.00
2022-08-18T23:11:31.859Z,100816.00
2022-08-18T23:14:05.013Z,100821.00
2022-08-18T23:16:32.537Z,100813.00
2022-08-18T23:19:02.027Z,100824.00
2022-08-18T23:21:34.716Z,100827.00
2022-08-18T23:24:04.648Z,100833.00
2022-08-18T23:26:31.891Z,100829.00
2022-08-18T23:28:58.762Z,100827.00
2022-08-18T23:31:25.907Z,100831.00
2022-08-18T23:33:52.707Z,100821.00
2022-08-18T23:36:19.552Z,100824.00
2022-08-18T23:38:46.390Z,100825.00
2022-08-18T23:41:14.388Z,100824.00
2022-08-18T23:43:41.652Z,100835.00
2022-08-18T23:46:21.827Z,100824.00
2022-08-18T23:48:52.825Z,100828.00
2022-08-18T23:51:43.905Z,100844.00
2022-08-18T23:54:14.601Z,100835.00
2022-08-18T23:56:41.408Z,100831.00
2022-08-18T23:59:08.416Z,100843.00
